»·PEaware :: N29931 KFOT-KSTS

N29931 :: KFOT-KSTS

FLIGHT INFORMATION

Flight Status: Arrived
Operator: Privately registered:
United States
More flights under this callsign
Pilot: Jan K. (187)
Aircraft: ROCKWELL T-6 TEXAN
(T6)
More flights by this aircraft type
Origin: KFOT Rohnerville
United States
Destination: KSTS Sonoma Co
United States
More flights between these airports :: More routes between these airports
Route:
File this flight plan on PilotEdge
Remarks:
Altitude:
(Current/Filed)
3,500ft
Speed:
(Current/Filed)
130kts
Departed: 10-Dec-17 12:43 PM
Arrived: 10-Dec-17 02:13 PM
Distance/Time
Traveled:
137nm/1:29
Distance/Time
To Go:
Arrived

Flight Plot

Page will automatically refresh every two minutes.

Flight plan parsing failed; only flown route is shown


Map Options




Map Legend


Flown Route
Filed Route
Departure Airport
Arrival Airport
Navaid (VOR, NDB)
Fix

Horizontal Profiles

Position Reports

Time Latitude Longitude Heading Altitude Ground
Speed
10-Dec-17 12:40 40.551561 -124.126478 184 360ft 0kts
10-Dec-17 12:41 40.551558 -124.126478 185 360ft 0kts
10-Dec-17 12:42 40.551398 -124.126501 187 360ft 0kts
10-Dec-17 12:43 40.551393 -124.126502 188 360ft 0kts
10-Dec-17 12:44 40.551385 -124.126504 188 360ft 0kts
10-Dec-17 12:45 40.551381 -124.126504 188 360ft 0kts
10-Dec-17 12:46 40.551047 -124.126634 213 360ft 2kts
10-Dec-17 12:47 40.551226 -124.127983 305 360ft 32kts
10-Dec-17 12:48 40.567700 -124.156261 305 996ft 111kts
10-Dec-17 12:49 40.587671 -124.187810 307 1862ft 109kts
10-Dec-17 12:50 40.607734 -124.217118 312 2665ft 110kts
10-Dec-17 12:51 40.628730 -124.246188 313 3311ft 110kts
10-Dec-17 12:52 40.651729 -124.278641 305 3466ft 129kts
10-Dec-17 12:53 40.647406 -124.323814 226 3488ft 130kts
10-Dec-17 12:54 40.617400 -124.347512 201 3416ft 128kts
10-Dec-17 12:55 40.585184 -124.365965 201 3450ft 123kts
10-Dec-17 12:56 40.553854 -124.383345 199 3489ft 122kts
10-Dec-17 12:57 40.522267 -124.400307 199 3491ft 122kts
10-Dec-17 12:58 40.490755 -124.417034 197 3490ft 122kts
10-Dec-17 12:59 40.458439 -124.430009 185 3490ft 121kts
10-Dec-17 13:00 40.424885 -124.428270 163 3492ft 120kts
10-Dec-17 13:01 40.392560 -124.416384 163 3499ft 121kts
10-Dec-17 13:02 40.360416 -124.404578 163 3499ft 121kts
10-Dec-17 13:03 40.327750 -124.392366 162 3501ft 122kts
10-Dec-17 13:04 40.295027 -124.380115 162 3493ft 122kts
10-Dec-17 13:05 40.264290 -124.362624 144 3492ft 121kts
10-Dec-17 13:06 40.236206 -124.333857 139 3524ft 132kts
10-Dec-17 13:07 40.209655 -124.303537 137 3497ft 123kts
10-Dec-17 13:08 40.183209 -124.271417 137 3559ft 138kts
10-Dec-17 13:10 40.156528 -124.238948 137 3469ft 125kts
10-Dec-17 13:11 40.131638 -124.207823 136 3463ft 122kts
10-Dec-17 13:12 40.107134 -124.176880 136 3470ft 121kts
10-Dec-17 13:13 40.082842 -124.146201 136 3487ft 122kts
10-Dec-17 13:14 40.058305 -124.115235 136 3487ft 122kts
10-Dec-17 13:15 40.033872 -124.084366 136 3494ft 122kts
10-Dec-17 13:16 40.001472 -124.061752 156 3602ft 141kts
10-Dec-17 13:17 39.967407 -124.043085 158 3467ft 126kts
10-Dec-17 13:18 39.935569 -124.027398 158 3497ft 121kts
10-Dec-17 13:19 39.903453 -124.011480 158 3506ft 124kts
10-Dec-17 13:20 39.871099 -123.995312 158 3491ft 124kts
10-Dec-17 13:21 39.838826 -123.979491 158 3490ft 123kts
10-Dec-17 13:22 39.806512 -123.963238 158 3493ft 124kts
10-Dec-17 13:23 39.774219 -123.947028 158 3494ft 124kts
10-Dec-17 13:24 39.741808 -123.930733 157 3496ft 124kts
10-Dec-17 13:25 39.709487 -123.914486 157 3497ft 124kts
10-Dec-17 13:26 39.677152 -123.898229 157 3498ft 124kts
10-Dec-17 13:27 39.644705 -123.881924 157 3499ft 124kts
10-Dec-17 13:28 39.612344 -123.865657 157 3500ft 124kts
10-Dec-17 13:29 39.579857 -123.849367 157 3501ft 125kts
10-Dec-17 13:30 39.547454 -123.833121 157 3501ft 125kts
10-Dec-17 13:31 39.515031 -123.816858 157 3502ft 125kts
10-Dec-17 13:32 39.482250 -123.801075 167 3511ft 128kts
10-Dec-17 13:33 39.445865 -123.793001 168 3524ft 133kts
10-Dec-17 13:34 39.408936 -123.784403 167 3526ft 134kts
10-Dec-17 13:35 39.373292 -123.776573 168 3506ft 127kts
10-Dec-17 13:36 39.337746 -123.768736 168 3515ft 130kts
10-Dec-17 13:37 39.302491 -123.760951 168 3507ft 127kts
10-Dec-17 13:38 39.267752 -123.753598 171 3505ft 127kts
10-Dec-17 13:39 39.232383 -123.751708 175 3506ft 127kts
10-Dec-17 13:40 39.196835 -123.750099 175 3506ft 127kts
10-Dec-17 13:41 39.159125 -123.749550 176 3534ft 136kts
10-Dec-17 13:42 39.122465 -123.749159 176 3508ft 128kts
10-Dec-17 13:43 39.086796 -123.748749 175 3500ft 128kts
10-Dec-17 13:44 39.051201 -123.748292 175 3500ft 128kts
10-Dec-17 13:45 39.015520 -123.747892 175 3500ft 128kts
10-Dec-17 13:46 38.979909 -123.747464 175 3499ft 128kts
10-Dec-17 13:47 38.944965 -123.743701 148 3495ft 124kts
10-Dec-17 13:48 38.914685 -123.722187 140 3512ft 126kts
10-Dec-17 13:49 38.890105 -123.691387 131 3500ft 122kts
10-Dec-17 13:50 38.865334 -123.658484 131 3554ft 135kts
10-Dec-17 13:51 38.838901 -123.623503 131 3498ft 143kts
10-Dec-17 13:52 38.811889 -123.590952 136 3489ft 128kts
10-Dec-17 13:53 38.784983 -123.562287 139 3477ft 124kts
10-Dec-17 13:54 38.757451 -123.535764 139 3447ft 123kts
10-Dec-17 13:55 38.729334 -123.508752 139 3493ft 130kts
10-Dec-17 13:56 38.701256 -123.481816 138 3473ft 123kts
10-Dec-17 13:57 38.673962 -123.455355 138 3445ft 123kts
10-Dec-17 13:58 38.646796 -123.429162 138 3481ft 121kts
10-Dec-17 13:59 38.619807 -123.402721 138 3483ft 122kts
10-Dec-17 14:00 38.592681 -123.376161 138 3482ft 123kts
10-Dec-17 14:01 38.565427 -123.349489 138 3481ft 123kts
10-Dec-17 14:02 38.539013 -123.321872 135 3480ft 122kts
10-Dec-17 14:03 38.513385 -123.292922 135 3479ft 122kts
10-Dec-17 14:04 38.488191 -123.264522 134 3469ft 122kts
10-Dec-17 14:05 38.462587 -123.235735 134 3455ft 122kts
10-Dec-17 14:06 38.437075 -123.206913 134 3454ft 122kts
10-Dec-17 14:06 38.418393 -123.180798 104 3452ft 119kts
10-Dec-17 14:08 38.427656 -123.133908 70 3458ft 119kts
10-Dec-17 14:09 38.440575 -123.094709 67 3465ft 120kts
10-Dec-17 14:10 38.455904 -123.051490 67 3510ft 138kts
10-Dec-17 14:10 38.468106 -123.016187 67 3435ft 128kts
10-Dec-17 14:12 38.485043 -122.967923 67 3011ft 130kts
10-Dec-17 14:12 38.497557 -122.931587 69 2619ft 133kts
10-Dec-17 14:13 38.510979 -122.886591 71 2103ft 135kts
10-Dec-17 14:14 38.513111 -122.841206 110 1390ft 123kts
10-Dec-17 14:16 38.488956 -122.811675 157 800ft 95kts
10-Dec-17 14:16 38.488198 -122.796398 323 526ft 107kts
10-Dec-17 14:17 38.509493 -122.809573 334 130ft 69kts
10-Dec-17 14:18 38.514523 -122.811164 115 130ft 4kts
10-Dec-17 14:19 38.513574 -122.810171 149 130ft 5kts
10-Dec-17 14:20 38.511488 -122.808958 156 130ft 10kts
10-Dec-17 14:21 38.508601 -122.807447 142 130ft 11kts
10-Dec-17 14:22 38.505740 -122.805937 151 130ft 8kts
10-Dec-17 14:23 38.505458 -122.804239 51 130ft 1kts
10-Dec-17 14:24 38.505603 -122.804063 21 130ft 0kts
10-Dec-17 14:25 38.505652 -122.804038 21 130ft 0kts
10-Dec-17 14:26 38.505652 -122.804038 21 130ft 0kts
10-Dec-17 14:27 38.505655 -122.804037 22 130ft 0kts
10-Dec-17 14:28 38.505655 -122.804037 22 130ft 0kts
10-Dec-17 14:29 38.505655 -122.804037 22 130ft 0kts
10-Dec-17 14:30 38.505655 -122.804037 22 130ft 0kts
10-Dec-17 14:31 38.505655 -122.804037 22 130ft 0kts
10-Dec-17 14:32 38.505655 -122.804037 22 130ft 0kts

Navigation Log

Ident Type
Flight plan parsing failed, navigation log unavailable